PWSweather.com
Personal Weather Stations
Station Observations
WISCHPK61
Green Bay Schmitt Park, Green Bay, WI 54311

Green Bay Schmitt ParkGreen Bay, WI 54311

Lat: 44.514277, Lon: -87.935067

Elevation: 735

Station Type: Acu Rite Pro Weather Center model 02032C

http://greenbayweathercam.com

High Low Average
Temperature 33.7°F0.9°C 7.7°F-13.5°C 19.3°F-7.1°C
Dew Point 33.4°F0.8°C -1.0°F-18.3°C 18.0°F-7.8°C
Winds Calm Calm Calm Calm Calm SSWCalm SSW
Wind Gusts -- -- --
Humidity 99% 56% 95%
Pressure 29.50 in999.0 mb 29.43 in996.6 mb -
Precipitation 0.00 in0.0 mm - -
Hour Temp Dew Point Humidity Winds Wind Gusts Pressure Precip Precip Rate Daily Precip Total
12:00 AM 12.2°F-11.0°C 12.0°F-11.1°C 99% Calm Calm -- 29.43 in996.6 mb - 0.00 in0.0 mm 0.00 in0.0 mm
01:00 AM 11.3°F-11.5°C 5.8°F-14.6°C 78% Calm Calm -- 29.43 in996.6 mb - 0.00 in0.0 mm 0.00 in0.0 mm
02:00 AM 11.7°F-11.3°C -1.0°F-18.3°C 56% Calm Calm -- 29.43 in996.6 mb - 0.00 in0.0 mm 0.00 in0.0 mm
03:00 AM 10.9°F-11.7°C 10.7°F-11.8°C 99% Calm Calm -- 29.45 in997.3 mb - 0.00 in0.0 mm 0.00 in0.0 mm
04:00 AM 9.9°F-12.3°C 9.7°F-12.4°C 99% Calm Calm -- 29.45 in997.3 mb - 0.00 in0.0 mm 0.00 in0.0 mm
05:00 AM 9.3°F-12.6°C 9.1°F-12.7°C 99% Calm Calm -- 29.44 in997.0 mb - 0.00 in0.0 mm 0.00 in0.0 mm
06:00 AM 9.0°F-12.8°C 2.7°F-16.3°C 75% Calm Calm -- 29.46 in997.6 mb - 0.00 in0.0 mm 0.00 in0.0 mm
07:00 AM 9.0°F-12.8°C 8.8°F-12.9°C 99% Calm Calm -- 29.47 in998.0 mb - 0.00 in0.0 mm 0.00 in0.0 mm
08:00 AM 7.7°F-13.5°C 7.5°F-13.6°C 99% Calm Calm -- 29.49 in998.6 mb - 0.00 in0.0 mm 0.00 in0.0 mm
09:00 AM 12.7°F-10.7°C 12.5°F-10.8°C 99% Calm Calm -- 29.50 in999.0 mb - 0.00 in0.0 mm 0.00 in0.0 mm
10:00 AM 20.3°F-6.5°C 20.1°F-6.6°C 99% Calm Calm -- 29.49 in998.6 mb - 0.00 in0.0 mm 0.00 in0.0 mm
11:00 AM 24.7°F-4.1°C 24.4°F-4.2°C 99% Calm Calm -- 29.49 in998.6 mb - 0.00 in0.0 mm 0.00 in0.0 mm
12:00 PM 32.2°F0.1°C 31.9°F-0.1°C 99% Calm Calm -- 29.48 in998.3 mb - 0.00 in0.0 mm 0.00 in0.0 mm
01:00 PM 33.1°F0.6°C 32.8°F0.4°C 99% Calm Calm -- 29.47 in998.0 mb - 0.00 in0.0 mm 0.00 in0.0 mm
02:00 PM 33.7°F0.9°C 33.4°F0.8°C 99% Calm Calm -- 29.46 in997.6 mb - 0.00 in0.0 mm 0.00 in0.0 mm
03:00 PM 27.6°F-2.4°C 27.3°F-2.6°C 99% Calm Calm -- 29.45 in997.3 mb - 0.00 in0.0 mm 0.00 in0.0 mm
04:00 PM 29.7°F-1.3°C 29.5°F-1.4°C 99% Calm Calm -- 29.43 in996.6 mb - 0.00 in0.0 mm 0.00 in0.0 mm
05:00 PM 28.0°F-2.2°C 27.8°F-2.3°C 99% Calm Calm -- 29.43 in996.6 mb - 0.00 in0.0 mm 0.00 in0.0 mm
06:00 PM 22.8°F-5.1°C 22.6°F-5.2°C 99% Calm Calm -- 29.44 in997.0 mb - 0.00 in0.0 mm 0.00 in0.0 mm
07:00 PM 21.4°F-5.9°C 21.2°F-6.0°C 99% Calm Calm -- 29.46 in997.6 mb - 0.00 in0.0 mm 0.00 in0.0 mm
08:00 PM 20.5°F-6.4°C 20.3°F-6.5°C 99% Calm Calm -- 29.46 in997.6 mb - 0.00 in0.0 mm 0.00 in0.0 mm
09:00 PM 19.9°F-6.7°C 19.7°F-6.8°C 99% Calm Calm -- 29.44 in997.0 mb - 0.00 in0.0 mm 0.00 in0.0 mm
10:00 PM 19.6°F-6.9°C 19.4°F-7.0°C 99% Calm Calm -- 29.44 in997.0 mb - 0.00 in0.0 mm 0.00 in0.0 mm
11:00 PM 19.4°F-7.0°C 15.6°F-9.1°C 85% Calm Calm -- 29.44 in997.0 mb - 0.00 in0.0 mm 0.00 in0.0 mm